Greater Kankakee Airport
KIKK : now visible

Airfield :











YOU CAN JOIN US ON...

 
LOGIN :

Register | Disclaimer

   EN    FR    IT 

 









Legend :    VFR   Marginal VFR   IFR   Intensive IFR   Very Intensive IFR
Visi :
Ceiling :
>= 8 km
>= 3000ft
5 to 8 km
1000 to 3000 ft
1500m to 5 km
500 to 1000 ft
800 to 1500m
200 to 500 ft
< 800m
< 200 ft
Symbols :   Thunderstorms  Fog  Heavy snow  Heavy precipitations  Wind > 20 kt






- Airport Elevation : 630 ft


KIKK - Greater Kankakee

CURRENT METAR :
  • 181055Z AUTO 17009KT 7SM RA OVC006 01/01 A2981 RMK AO2 P0003 T00110007

EXPIRED METARs :
  • 181035Z AUTO 16006KT 10SM -RA OVC006 01/01 A2983 RMK AO2 P0003 T00100005
  • 181015Z AUTO 16004KT 7SM -RA OVC006 01/01 A2985 RMK AO2 P0002 T00070005
  • 180955Z AUTO 17003KT 10SM -RA OVC006 01/00 A2987 RMK AO2 P0014 T00060002
  • 180935Z AUTO 16004KT 7SM -RA OVC006 01/00 A2988 RMK AO2 P0012 T00050002
  • 180915Z AUTO 15004KT 4SM UP OVC006 01/00 A2989 RMK AO2 P0007 T00050001
  • 180855Z AUTO 16005KT 3SM UP OVC006 01/00 A2991 RMK AO2 P0011 60022 T00050001
  • 180835Z AUTO 15005KT 7SM -RA OVC008 00/00 A2993 RMK AO2 P0004 T00020000
  • 180815Z AUTO 15005KT 7SM RA OVC008 00/00 A2995 RMK AO2 P0002 T00011005
  • 180755Z AUTO 15007KT 5SM RA OVC010 00/M01 A2996 RMK AO2 P0008 T00021006

TAF N/A



MET'MAP, your aeronautical weather chart ! - Copyright ORBIFLY December 2007 - Disclaimer

ORBIFLY MET'MAP TEAM :

Programming & Development : Alexandra Zaïnal
Concept & original design : Baudouin d'Aumeries
Assistance for programming : Marc-Olivier Méhu
Technical & hardware support : Manuel Goepfert

Contact : metmap@orbifly.com




SOURCES & CREDITS :

   NOAA       Earth
Advisory